createdAt,value
2023-01-05T00:01:36.724Z,17.98
2023-01-05T00:04:05.333Z,18.58
2023-01-05T00:06:34.043Z,17.13
2023-01-05T00:09:04.065Z,18.38
2023-01-05T00:11:50.316Z,17.27
2023-01-05T00:14:38.716Z,18.13
2023-01-05T00:17:25.933Z,17.70
2023-01-05T00:20:12.243Z,17.77
2023-01-05T00:22:46.300Z,16.03
2023-01-05T00:25:17.279Z,16.23
2023-01-05T00:27:48.297Z,16.65
2023-01-05T00:30:17.569Z,16.67
2023-01-05T00:32:45.863Z,18.13
2023-01-05T00:35:15.558Z,17.23
2023-01-05T00:37:44.819Z,18.17
2023-01-05T00:40:16.261Z,17.88
2023-01-05T00:42:44.595Z,16.98
2023-01-05T00:45:14.569Z,17.10
2023-01-05T00:47:43.114Z,16.98
2023-01-05T00:50:14.323Z,15.15
2023-01-05T00:52:42.312Z,15.13
2023-01-05T00:55:10.574Z,15.13
2023-01-05T00:57:40.099Z,16.08
2023-01-05T01:00:13.843Z,16.25
2023-01-05T01:02:41.730Z,16.85
2023-01-05T01:05:09.953Z,15.88
2023-01-05T01:07:38.032Z,16.42
2023-01-05T01:10:07.489Z,17.52
2023-01-05T01:12:36.037Z,17.15
2023-01-05T01:15:06.714Z,18.48
2023-01-05T01:17:35.068Z,16.13
2023-01-05T01:20:03.163Z,17.48
2023-01-05T01:22:30.936Z,16.13
2023-01-05T01:24:58.682Z,16.17
2023-01-05T01:27:27.171Z,16.98
2023-01-05T01:29:54.893Z,16.65
2023-01-05T01:32:24.725Z,15.93
2023-01-05T01:34:52.589Z,15.65
2023-01-05T01:37:20.343Z,17.10
2023-01-05T01:39:51.735Z,15.60
2023-01-05T01:42:22.616Z,16.60
2023-01-05T01:44:57.632Z,16.75
2023-01-05T01:47:37.829Z,15.07
2023-01-05T01:50:11.014Z,16.23
2023-01-05T01:52:40.633Z,16.10
2023-01-05T01:55:08.904Z,17.95
2023-01-05T01:57:38.710Z,17.20
2023-01-05T02:00:09.544Z,19.50
2023-01-05T02:02:49.423Z,19.27
2023-01-05T02:05:24.167Z,19.38
2023-01-05T02:07:51.998Z,19.40
2023-01-05T02:10:32.089Z,18.92
2023-01-05T02:13:12.640Z,18.15
2023-01-05T02:15:49.022Z,20.13
2023-01-05T02:18:33.805Z,17.85
2023-01-05T02:21:17.315Z,17.15
2023-01-05T02:24:12.661Z,18.08
2023-01-05T02:27:08.483Z,17.20
2023-01-05T02:29:58.652Z,17.45
2023-01-05T02:32:34.903Z,17.27
2023-01-05T02:35:11.274Z,17.45
2023-01-05T02:37:45.746Z,19.98
2023-01-05T02:40:21.188Z,19.58
2023-01-05T02:42:53.466Z,19.50
2023-01-05T02:45:23.652Z,18.63
2023-01-05T02:47:58.391Z,21.17
2023-01-05T02:50:31.789Z,20.42
2023-01-05T02:53:06.811Z,19.85
2023-01-05T02:55:39.421Z,19.95
2023-01-05T02:58:12.691Z,22.17
2023-01-05T03:00:47.914Z,21.30
2023-01-05T03:03:22.763Z,20.90
2023-01-05T03:05:58.698Z,20.20
2023-01-05T03:08:32.949Z,20.77
2023-01-05T03:11:27.155Z,18.80
2023-01-05T03:13:59.792Z,19.15
2023-01-05T03:16:31.606Z,19.58
2023-01-05T03:19:23.824Z,19.35
2023-01-05T03:22:12.518Z,20.05
2023-01-05T03:25:03.563Z,19.50
2023-01-05T03:27:54.785Z,17.88
2023-01-05T03:30:53.086Z,20.55
2023-01-05T03:33:48.683Z,20.27
2023-01-05T03:36:23.723Z,19.75
2023-01-05T03:38:55.149Z,19.67
2023-01-05T03:41:24.902Z,18.80
2023-01-05T03:43:56.201Z,20.23
2023-01-05T03:46:25.427Z,21.25
2023-01-05T03:48:54.433Z,19.60
2023-01-05T03:51:24.352Z,20.42
2023-01-05T03:53:52.432Z,20.65
2023-01-05T03:56:20.942Z,20.85
2023-01-05T03:58:49.622Z,21.13
2023-01-05T04:01:18.102Z,20.80
2023-01-05T04:03:46.402Z,20.08
2023-01-05T04:06:14.983Z,21.63
2023-01-05T04:08:44.705Z,19.95
2023-01-05T04:11:15.104Z,19.88
2023-01-05T04:13:47.779Z,19.42
2023-01-05T04:16:17.615Z,20.67
2023-01-05T04:18:46.268Z,18.80
2023-01-05T04:21:17.701Z,19.13
2023-01-05T04:23:48.291Z,18.48
2023-01-05T04:26:17.132Z,18.92
2023-01-05T04:28:50.128Z,16.65
2023-01-05T04:31:20.921Z,17.15
2023-01-05T04:33:50.786Z,17.90
2023-01-05T04:36:22.271Z,16.77
2023-01-05T04:38:52.216Z,16.00
2023-01-05T04:41:21.838Z,17.60
2023-01-05T04:43:52.681Z,17.77
2023-01-05T04:46:21.606Z,16.95
2023-01-05T04:48:51.909Z,16.10
2023-01-05T04:51:22.222Z,14.57
2023-01-05T04:53:51.795Z,13.63
2023-01-05T04:56:23.583Z,13.43
2023-01-05T04:58:51.879Z,12.10
2023-01-05T05:01:20.503Z,11.93
2023-01-05T05:03:53.330Z,11.73
2023-01-05T05:06:23.963Z,11.55
2023-01-05T05:08:55.731Z,11.57
2023-01-05T05:11:25.353Z,11.15
2023-01-05T05:13:53.349Z,11.38
2023-01-05T05:16:21.541Z,11.90
2023-01-05T05:18:50.856Z,10.93
2023-01-05T05:21:23.737Z,11.07
2023-01-05T05:23:51.884Z,11.48
2023-01-05T05:26:22.090Z,11.57
2023-01-05T05:28:51.435Z,11.40
2023-01-05T05:31:19.490Z,12.27
2023-01-05T05:33:47.623Z,11.63
2023-01-05T05:36:16.271Z,10.77
2023-01-05T05:38:44.381Z,11.77
2023-01-05T05:41:12.321Z,11.38
2023-01-05T05:43:41.974Z,12.80
2023-01-05T05:46:09.964Z,11.82
2023-01-05T05:48:38.178Z,12.20
2023-01-05T05:51:06.453Z,12.93
2023-01-05T05:53:34.566Z,11.88
2023-01-05T05:56:02.558Z,11.25
2023-01-05T05:58:30.724Z,11.77
2023-01-05T06:01:00.355Z,11.48
2023-01-05T06:03:28.435Z,10.98
2023-01-05T06:05:56.536Z,11.20
2023-01-05T06:08:25.109Z,10.18
2023-01-05T06:10:53.262Z,10.52
2023-01-05T06:13:21.308Z,10.77
2023-01-05T06:15:49.686Z,11.02
2023-01-05T06:18:19.181Z,10.38
2023-01-05T06:20:47.344Z,11.35
2023-01-05T06:23:15.510Z,10.95
2023-01-05T06:25:44.162Z,11.15
2023-01-05T06:28:16.979Z,11.63
2023-01-05T06:30:48.694Z,12.90
2023-01-05T06:33:16.866Z,11.75
2023-01-05T06:35:46.447Z,12.27
2023-01-05T06:38:16.444Z,11.75
2023-01-05T06:40:46.516Z,12.13
2023-01-05T06:43:14.727Z,12.73
2023-01-05T06:45:42.886Z,10.98
2023-01-05T06:48:11.085Z,11.95
2023-01-05T06:50:39.051Z,10.63
2023-01-05T06:53:08.786Z,9.82
2023-01-05T06:55:36.797Z,10.00
2023-01-05T06:58:04.769Z,10.23
2023-01-05T07:00:32.848Z,10.50
2023-01-05T07:03:01.041Z,10.18
2023-01-05T07:05:29.080Z,10.05
2023-01-05T07:07:57.336Z,10.30
2023-01-05T07:10:26.745Z,11.02
2023-01-05T07:12:54.809Z,10.75
2023-01-05T07:15:23.062Z,10.05
2023-01-05T07:17:51.169Z,9.45
2023-01-05T07:20:19.197Z,10.30
2023-01-05T07:22:47.355Z,10.10
2023-01-05T07:25:15.385Z,9.95
2023-01-05T07:27:44.796Z,10.00
2023-01-05T07:30:13.881Z,10.18
2023-01-05T07:32:42.016Z,11.27
2023-01-05T07:35:10.427Z,12.52
2023-01-05T07:37:38.544Z,13.30
2023-01-05T07:40:07.804Z,13.55
2023-01-05T07:42:35.981Z,13.25
2023-01-05T07:45:07.944Z,11.77
2023-01-05T07:47:38.888Z,11.50
2023-01-05T07:50:07.995Z,11.18
2023-01-05T07:52:35.925Z,12.02
2023-01-05T07:55:04.098Z,11.20
2023-01-05T07:57:32.153Z,11.60
2023-01-05T08:00:00.175Z,10.52
2023-01-05T08:02:35.482Z,10.68
2023-01-05T08:05:04.449Z,11.50
2023-01-05T08:07:32.322Z,12.68
2023-01-05T08:10:18.581Z,11.98
2023-01-05T08:13:04.959Z,12.37
2023-01-05T08:15:33.031Z,14.52
2023-01-05T08:18:02.319Z,13.85
2023-01-05T08:20:30.396Z,14.38
2023-01-05T08:22:58.564Z,12.00
2023-01-05T08:25:26.736Z,10.13
2023-01-05T08:27:54.775Z,11.75
2023-01-05T08:30:22.865Z,11.15
2023-01-05T08:32:50.924Z,12.68
2023-01-05T08:35:20.553Z,11.63
2023-01-05T08:37:48.551Z,10.98
2023-01-05T08:40:16.810Z,11.98
2023-01-05T08:42:48.425Z,12.35
2023-01-05T08:45:16.987Z,12.57
2023-01-05T08:47:45.158Z,12.57
2023-01-05T08:50:13.292Z,12.77
2023-01-05T08:52:42.926Z,14.10
2023-01-05T08:55:11.106Z,13.10
2023-01-05T08:57:39.218Z,13.63
2023-01-05T09:00:08.558Z,13.57
2023-01-05T09:02:36.761Z,13.40
2023-01-05T09:05:05.527Z,14.85
2023-01-05T09:07:33.767Z,13.70
2023-01-05T09:10:06.605Z,14.23
2023-01-05T09:12:36.675Z,14.43
2023-01-05T09:15:07.856Z,13.32
2023-01-05T09:17:39.015Z,14.57
2023-01-05T09:20:07.992Z,15.40
2023-01-05T09:22:36.627Z,15.02
2023-01-05T09:25:07.074Z,13.95
2023-01-05T09:27:36.502Z,13.55
2023-01-05T09:30:05.523Z,12.73
2023-01-05T09:32:33.743Z,14.45
2023-01-05T09:35:01.709Z,15.05
2023-01-05T09:37:29.787Z,15.20
2023-01-05T09:39:57.865Z,14.00
2023-01-05T09:42:31.212Z,14.20
2023-01-05T09:45:05.272Z,13.82
2023-01-05T09:47:37.061Z,12.73
2023-01-05T09:50:06.993Z,11.15
2023-01-05T09:52:38.238Z,11.13
2023-01-05T09:55:15.882Z,11.30
2023-01-05T09:57:54.021Z,10.35
2023-01-05T10:00:24.475Z,10.65
2023-01-05T10:02:57.406Z,13.65
2023-01-05T10:05:28.072Z,12.73
2023-01-05T10:08:02.326Z,27.92
2023-01-05T10:10:43.889Z,13.32
2023-01-05T10:13:25.368Z,14.52
2023-01-05T10:15:55.227Z,15.10
2023-01-05T10:18:25.927Z,13.88
2023-01-05T10:21:05.046Z,13.57
2023-01-05T10:23:56.593Z,13.52
2023-01-05T10:26:30.325Z,14.10
2023-01-05T10:29:12.276Z,12.93
2023-01-05T10:31:47.272Z,13.43
2023-01-05T10:34:22.610Z,13.88
2023-01-05T10:37:12.994Z,12.38
2023-01-05T10:40:00.985Z,14.02
2023-01-05T10:42:48.047Z,14.63
2023-01-05T10:47:47.288Z,15.63
2023-01-05T10:50:29.837Z,15.02
2023-01-05T10:52:58.674Z,15.20
2023-01-05T10:55:30.467Z,14.82
2023-01-05T10:57:58.480Z,14.20
2023-01-05T11:00:41.994Z,15.32
2023-01-05T11:03:16.299Z,16.27
2023-01-05T11:05:46.911Z,15.10
2023-01-05T11:08:17.912Z,14.23
2023-01-05T11:10:53.230Z,14.63
2023-01-05T11:13:31.027Z,15.18
2023-01-05T11:16:07.634Z,14.23
2023-01-05T11:21:11.412Z,13.82
2023-01-05T11:23:41.099Z,13.98
2023-01-05T11:26:37.140Z,13.20
2023-01-05T11:29:15.912Z,12.85
2023-01-05T11:31:50.376Z,13.25
2023-01-05T11:34:29.698Z,14.43
2023-01-05T11:37:03.937Z,14.00
2023-01-05T11:39:39.342Z,13.25
2023-01-05T11:42:16.371Z,12.50
2023-01-05T11:44:50.884Z,12.68
2023-01-05T11:47:24.129Z,12.18
2023-01-05T11:50:09.433Z,12.48
2023-01-05T11:52:40.202Z,12.95
2023-01-05T11:55:34.118Z,12.52
2023-01-05T11:58:23.211Z,11.50
2023-01-05T12:01:35.733Z,9.75
2023-01-05T12:04:10.651Z,9.88
2023-01-05T12:07:06.941Z,10.40
2023-01-05T12:09:37.115Z,8.32
2023-01-05T12:12:24.937Z,8.15
2023-01-05T12:15:03.681Z,7.75
2023-01-05T12:17:39.767Z,7.82
2023-01-05T12:20:29.594Z,9.15
2023-01-05T12:23:28.358Z,5.95
2023-01-05T12:26:01.951Z,4.72
2023-01-05T12:28:56.591Z,4.53
2023-01-05T12:35:00.425Z,4.20
2023-01-05T12:37:40.393Z,3.78
2023-01-05T12:40:33.454Z,3.90
2023-01-05T12:43:04.056Z,4.78
2023-01-05T12:46:03.625Z,4.38
2023-01-05T12:48:34.928Z,3.80
2023-01-05T12:51:08.905Z,3.28
2023-01-05T12:53:48.312Z,3.75
2023-01-05T12:56:23.575Z,3.83
2023-01-05T12:59:09.787Z,3.65
2023-01-05T13:01:43.577Z,4.00
2023-01-05T13:04:27.400Z,3.25
2023-01-05T13:06:59.629Z,3.80
2023-01-05T13:09:32.791Z,2.20
2023-01-05T13:12:07.031Z,2.33
2023-01-05T13:14:37.079Z,2.83
2023-01-05T13:17:12.453Z,3.08
2023-01-05T13:19:46.260Z,3.35
2023-01-05T13:22:20.559Z,3.33
2023-01-05T13:24:53.342Z,3.60
2023-01-05T13:27:21.301Z,3.50
2023-01-05T13:29:54.547Z,3.72
2023-01-05T13:32:36.237Z,3.55
2023-01-05T13:35:34.181Z,4.05
2023-01-05T13:38:34.845Z,4.05
2023-01-05T13:41:34.562Z,4.40
2023-01-05T13:44:34.722Z,3.60
2023-01-05T13:47:16.197Z,3.78
2023-01-05T13:50:14.637Z,3.92
2023-01-05T13:53:01.868Z,3.90
2023-01-05T13:55:31.406Z,4.00
2023-01-05T13:58:34.907Z,4.07
2023-01-05T14:01:10.003Z,3.90
2023-01-05T14:03:40.445Z,10.70
2023-01-05T14:06:17.812Z,4.82
2023-01-05T14:08:52.791Z,6.55
2023-01-05T14:11:22.333Z,5.50
2023-01-05T14:13:54.428Z,10.88
2023-01-05T14:16:54.357Z,8.48
2023-01-05T14:19:42.508Z,8.15
2023-01-05T14:22:38.427Z,7.50
2023-01-05T14:25:48.033Z,9.45
2023-01-05T14:28:44.581Z,6.70
2023-01-05T14:31:50.088Z,7.55
2023-01-05T14:34:20.054Z,15.52
2023-01-05T14:37:08.026Z,11.77
2023-01-05T14:39:42.569Z,5.47
2023-01-05T14:42:25.870Z,5.47
2023-01-05T14:44:59.933Z,4.55
2023-01-05T14:47:41.007Z,3.83
2023-01-05T14:50:28.419Z,4.70
2023-01-05T14:52:59.042Z,5.32
2023-01-05T14:55:39.389Z,5.55
2023-01-05T14:58:14.141Z,5.13
2023-01-05T15:00:47.774Z,4.97
2023-01-05T15:03:26.468Z,8.68
2023-01-05T15:06:00.072Z,9.10
2023-01-05T15:09:08.956Z,7.53
2023-01-05T15:12:09.431Z,8.77
2023-01-05T15:14:55.432Z,8.68
2023-01-05T15:17:49.782Z,8.32
2023-01-05T15:20:49.089Z,9.70
2023-01-05T15:23:51.070Z,9.65
2023-01-05T15:26:38.448Z,8.07
2023-01-05T15:29:50.763Z,7.30
2023-01-05T15:32:21.639Z,9.20
2023-01-05T15:34:55.528Z,11.05
2023-01-05T15:37:31.449Z,8.90
2023-01-05T15:40:04.469Z,7.88
2023-01-05T15:42:39.372Z,6.75
2023-01-05T15:45:15.167Z,6.07
2023-01-05T15:47:43.512Z,5.27
2023-01-05T15:50:19.567Z,4.50
2023-01-05T15:52:55.537Z,5.15
2023-01-05T15:55:25.278Z,5.63
2023-01-05T15:57:54.500Z,8.23
2023-01-05T16:00:25.383Z,7.45
2023-01-05T16:02:54.040Z,10.35
2023-01-05T16:05:23.392Z,9.50
2023-01-05T16:07:56.342Z,10.90
2023-01-05T16:10:29.005Z,14.82
2023-01-05T16:13:01.408Z,16.27
2023-01-05T16:15:36.336Z,13.48
2023-01-05T16:18:06.564Z,7.68
2023-01-05T16:20:37.103Z,6.47
2023-01-05T16:23:12.257Z,7.57
2023-01-05T16:25:43.379Z,7.50
2023-01-05T16:28:17.727Z,7.75
2023-01-05T16:30:47.276Z,8.18
2023-01-05T16:33:30.394Z,7.78
2023-01-05T16:36:09.406Z,9.00
2023-01-05T16:38:39.555Z,7.60
2023-01-05T16:41:22.695Z,7.57
2023-01-05T16:43:54.017Z,7.30
2023-01-05T16:46:31.387Z,10.20
2023-01-05T16:49:01.936Z,7.90
2023-01-05T16:51:42.838Z,8.35
2023-01-05T16:54:23.612Z,9.63
2023-01-05T16:56:58.025Z,10.35
2023-01-05T16:59:43.599Z,13.80
2023-01-05T17:02:44.612Z,9.98
2023-01-05T17:05:15.761Z,10.65
2023-01-05T17:07:45.789Z,11.98
2023-01-05T17:10:21.383Z,14.57
2023-01-05T17:12:58.330Z,15.88
2023-01-05T17:15:30.465Z,12.60
2023-01-05T17:17:59.033Z,10.00
2023-01-05T17:20:30.851Z,10.75
2023-01-05T17:23:01.800Z,7.97
2023-01-05T17:25:34.307Z,7.88
2023-01-05T17:28:02.459Z,9.25
2023-01-05T17:30:30.392Z,8.85
2023-01-05T17:32:58.442Z,9.10
2023-01-05T17:35:26.289Z,9.82
2023-01-05T17:37:54.364Z,9.10
2023-01-05T17:40:22.871Z,8.52
2023-01-05T17:42:52.608Z,9.55
2023-01-05T17:45:22.403Z,9.05
2023-01-05T17:47:51.266Z,10.68
2023-01-05T17:50:21.293Z,11.10
2023-01-05T17:52:49.327Z,12.02
2023-01-05T17:55:17.373Z,16.90
2023-01-05T17:57:45.315Z,17.60
2023-01-05T18:00:18.270Z,15.80
2023-01-05T18:02:49.906Z,16.52
2023-01-05T18:05:18.021Z,19.25
2023-01-05T18:07:46.733Z,21.33
2023-01-05T18:10:16.304Z,20.90
2023-01-05T18:12:44.575Z,20.77
2023-01-05T18:15:19.593Z,19.60
2023-01-05T18:17:47.720Z,18.58
2023-01-05T18:20:17.710Z,18.75
2023-01-05T18:22:47.961Z,21.38
2023-01-05T18:25:16.530Z,21.25
2023-01-05T18:27:45.075Z,19.60
2023-01-05T18:30:15.018Z,19.63
2023-01-05T18:32:43.227Z,22.27
2023-01-05T18:35:11.601Z,22.05
2023-01-05T18:37:40.234Z,18.75
2023-01-05T18:40:09.724Z,18.55
2023-01-05T18:42:38.427Z,21.02
2023-01-05T18:45:19.018Z,24.20
2023-01-05T18:47:58.965Z,21.83
2023-01-05T18:50:27.020Z,20.67
2023-01-05T18:52:55.041Z,20.50
2023-01-05T18:55:22.983Z,22.27
2023-01-05T18:57:50.972Z,22.85
2023-01-05T19:00:19.526Z,20.65
2023-01-05T19:02:47.627Z,20.25
2023-01-05T19:05:17.431Z,22.55
2023-01-05T19:07:45.363Z,19.67
2023-01-05T19:10:13.822Z,19.73
2023-01-05T19:12:41.872Z,20.83
2023-01-05T19:15:10.844Z,21.85
2023-01-05T19:17:38.758Z,21.88
2023-01-05T19:20:07.618Z,23.83
2023-01-05T19:22:37.161Z,22.35
2023-01-05T19:25:07.241Z,19.13
2023-01-05T19:27:35.173Z,20.02
2023-01-05T19:30:03.267Z,21.00
2023-01-05T19:32:33.192Z,16.52
2023-01-05T19:35:01.307Z,16.73
2023-01-05T19:37:29.334Z,15.02
2023-01-05T19:39:58.807Z,15.57
2023-01-05T19:42:27.044Z,14.48
2023-01-05T19:44:55.048Z,16.67
2023-01-05T19:47:23.102Z,14.95
2023-01-05T19:49:52.767Z,14.93
2023-01-05T19:52:21.102Z,14.30
2023-01-05T19:54:49.027Z,13.93
2023-01-05T19:57:18.768Z,14.30
2023-01-05T19:59:46.723Z,16.70
2023-01-05T20:02:14.799Z,18.40
2023-01-05T20:04:45.683Z,21.02
2023-01-05T20:07:14.108Z,20.25
2023-01-05T20:09:42.562Z,23.77
2023-01-05T20:12:14.702Z,23.65
2023-01-05T20:14:44.445Z,24.05
2023-01-05T20:17:13.498Z,22.75
2023-01-05T20:19:41.616Z,22.23
2023-01-05T20:22:14.476Z,26.80
2023-01-05T20:24:43.275Z,28.63
2023-01-05T20:27:13.149Z,25.25
2023-01-05T20:29:41.139Z,25.05
2023-01-05T20:32:13.456Z,22.42
2023-01-05T20:34:43.236Z,22.67
2023-01-05T20:37:11.889Z,21.48
2023-01-05T20:39:41.626Z,21.02
2023-01-05T20:42:11.265Z,23.65
2023-01-05T20:44:58.049Z,23.38
2023-01-05T20:47:29.886Z,20.05
2023-01-05T20:49:58.165Z,19.48
2023-01-05T20:52:26.115Z,21.65
2023-01-05T20:54:56.535Z,21.20
2023-01-05T20:57:24.850Z,20.90
2023-01-05T20:59:53.008Z,21.08
2023-01-05T21:02:24.443Z,21.70
2023-01-05T21:04:54.955Z,19.60
2023-01-05T21:07:23.945Z,18.73
2023-01-05T21:09:52.871Z,16.80
2023-01-05T21:12:21.601Z,17.38
2023-01-05T21:14:49.357Z,17.85
2023-01-05T21:17:18.076Z,16.70
2023-01-05T21:19:46.317Z,18.02
2023-01-05T21:22:15.770Z,16.83
2023-01-05T21:24:46.736Z,16.67
2023-01-05T21:27:16.861Z,16.98
2023-01-05T21:29:45.652Z,16.70
2023-01-05T21:32:13.451Z,15.98
2023-01-05T21:34:41.340Z,15.13
2023-01-05T21:37:09.430Z,17.95
2023-01-05T21:39:40.186Z,18.33
2023-01-05T21:42:26.469Z,18.17
2023-01-05T21:44:54.464Z,18.33
2023-01-05T21:47:24.642Z,18.27
2023-01-05T21:49:52.824Z,18.38
2023-01-05T21:52:39.480Z,19.83
2023-01-05T21:55:28.794Z,16.30
2023-01-05T21:57:57.684Z,16.17
2023-01-05T22:00:25.928Z,19.83
2023-01-05T22:02:54.094Z,18.35
2023-01-05T22:05:22.111Z,18.80
2023-01-05T22:07:50.303Z,18.20
2023-01-05T22:10:19.702Z,17.75
2023-01-05T22:12:47.758Z,16.95
2023-01-05T22:15:15.628Z,17.38
2023-01-05T22:17:43.909Z,17.67
2023-01-05T22:20:13.977Z,16.50
2023-01-05T22:22:42.005Z,17.23
2023-01-05T22:25:10.457Z,15.88
2023-01-05T22:27:40.350Z,15.27
2023-01-05T22:30:09.605Z,17.95
2023-01-05T22:32:38.338Z,14.80
2023-01-05T22:35:06.888Z,14.68
2023-01-05T22:37:34.904Z,13.82
2023-01-05T22:40:02.920Z,13.80
2023-01-05T22:42:30.895Z,12.40
2023-01-05T22:45:00.736Z,13.95
2023-01-05T22:47:28.699Z,16.35
2023-01-05T22:49:56.637Z,14.15
2023-01-05T22:52:24.668Z,12.75
2023-01-05T22:54:53.057Z,12.45
2023-01-05T22:57:20.879Z,12.35
2023-01-05T22:59:48.628Z,12.77
2023-01-05T23:02:17.834Z,11.93
2023-01-05T23:04:45.596Z,12.25
2023-01-05T23:07:13.666Z,11.95
2023-01-05T23:09:41.552Z,12.30
2023-01-05T23:12:10.637Z,12.35
2023-01-05T23:14:39.772Z,12.48
2023-01-05T23:17:12.458Z,11.18
2023-01-05T23:19:42.270Z,13.57
2023-01-05T23:22:11.587Z,15.75
2023-01-05T23:24:39.681Z,12.98
2023-01-05T23:27:07.407Z,14.57
2023-01-05T23:29:35.324Z,12.77
2023-01-05T23:32:03.373Z,13.35
2023-01-05T23:34:31.238Z,13.13
2023-01-05T23:37:00.348Z,11.90
2023-01-05T23:39:28.025Z,11.43
2023-01-05T23:41:55.781Z,11.63
2023-01-05T23:44:23.526Z,11.98
2023-01-05T23:46:57.118Z,11.45
2023-01-05T23:49:32.710Z,10.27
2023-01-05T23:52:12.504Z,9.63
2023-01-05T23:54:45.580Z,9.82
2023-01-05T23:57:21.874Z,9.52
2023-01-05T23:59:57.625Z,8.32
